Columbus, Ohio
Traffic Map
Current Weather Conditions
Columbus, Ohio
Overcast Light Snow
Overcast

Feels Like: -4°
Wind Chill: -4° Ceiling: 2600
Heat Index: Visibility: 4mi
Dew Point: -4° Wind: 10mph
Humidity: 72% Direction: 320° (NW)
Pressure: 30in Gusts: 0mph
Raw Report DataKCMH 042251Z 32009KT 4SM -SN BKN026 OVC036 01/M04 A3000 RMK AO2 SNB47 SLP165 P0000 T00061039
Traffic Incident Summary
Active as of:
Severity:
Category:
InformationThere was an issue retrieving the traffic information for this location. Please try a different location or try again shortly.
Advertisements
Track Severe Weather on mobile